Terminal Aerodrome Forecast
Issued by NWS

Home | Current Version | Previous Version | Text Only | Print | Product List | Glossary On
Versions: 1 2 3 4 5 6 7 8 9 10 11 12 13 14 15 16 17 18 19 20 21
620
FTUS41 KBGM 110228 AAA
TAFRME
TAF AMD
KRME 110228Z 1102/1124 27011KT 3SM -SN SCT012 OVC020
      TEMPO 1102/1105 1SM -SN
     FM110500 28010KT 3SM -SN OVC012
     FM111300 29012KT 5SM -SN SCT012 BKN020=

USA.gov is the U.S. government's official web portal to all federal, state and local government web resources and services.